createdAt,value
2018-05-08T00:02:03.082Z,3.33
2018-05-08T00:04:29.486Z,3.77
2018-05-08T00:06:55.801Z,3.60
2018-05-08T00:09:22.180Z,3.60
2018-05-08T00:11:48.515Z,3.30
2018-05-08T00:14:14.854Z,3.70
2018-05-08T00:16:41.209Z,3.63
2018-05-08T00:19:07.529Z,3.50
2018-05-08T00:21:33.903Z,3.33
2018-05-08T00:24:00.253Z,3.70
2018-05-08T00:26:26.576Z,3.70
2018-05-08T00:28:52.924Z,3.20
2018-05-08T00:31:19.257Z,3.50
2018-05-08T00:33:45.636Z,3.80
2018-05-08T00:36:11.948Z,3.27
2018-05-08T00:38:38.337Z,3.87
2018-05-08T00:41:04.664Z,3.73
2018-05-08T00:43:31.018Z,3.40
2018-05-08T00:45:57.337Z,3.40
2018-05-08T00:48:23.704Z,3.43
2018-05-08T00:50:50.020Z,3.60
2018-05-08T00:53:16.460Z,3.80
2018-05-08T00:55:42.812Z,3.90
2018-05-08T00:58:09.148Z,3.30
2018-05-08T01:00:35.510Z,3.30
2018-05-08T01:03:01.860Z,3.43
2018-05-08T01:05:28.324Z,3.67
2018-05-08T01:07:54.634Z,3.33
2018-05-08T01:10:20.970Z,3.70
2018-05-08T01:12:47.328Z,3.50
2018-05-08T01:15:13.649Z,3.33
2018-05-08T01:17:40.069Z,4.40
2018-05-08T01:20:06.404Z,3.47
2018-05-08T01:22:32.790Z,3.60
2018-05-08T01:24:59.122Z,3.50
2018-05-08T01:27:25.436Z,3.57
2018-05-08T01:29:51.811Z,3.00
2018-05-08T01:32:18.173Z,3.43
2018-05-08T01:34:44.530Z,3.77
2018-05-08T01:37:10.852Z,3.70
2018-05-08T01:39:37.222Z,3.60
2018-05-08T01:42:03.634Z,3.27
2018-05-08T01:44:30.044Z,3.03
2018-05-08T01:46:56.367Z,3.57
2018-05-08T01:49:22.744Z,3.30
2018-05-08T01:51:49.094Z,3.10
2018-05-08T01:54:15.492Z,3.13
2018-05-08T01:56:41.824Z,3.30
2018-05-08T01:59:08.152Z,3.60
2018-05-08T02:01:34.509Z,3.33
2018-05-08T02:04:00.883Z,3.50
2018-05-08T02:06:27.220Z,3.50
2018-05-08T02:08:53.543Z,3.37
2018-05-08T02:11:19.964Z,3.00
2018-05-08T02:13:46.349Z,3.33
2018-05-08T02:16:12.724Z,3.03
2018-05-08T02:18:39.108Z,3.33
2018-05-08T02:21:05.528Z,3.10
2018-05-08T02:23:31.878Z,3.00
2018-05-08T02:25:58.293Z,3.10
2018-05-08T02:28:24.610Z,3.57
2018-05-08T02:30:51.055Z,3.20
2018-05-08T02:33:17.408Z,3.20
2018-05-08T02:35:43.916Z,3.20
2018-05-08T02:38:10.333Z,3.13
2018-05-08T02:40:36.661Z,3.60
2018-05-08T02:43:03.082Z,3.03
2018-05-08T02:45:29.401Z,3.33
2018-05-08T02:47:55.753Z,3.23
2018-05-08T02:50:23.158Z,2.80
2018-05-08T02:52:49.485Z,2.63
2018-05-08T02:55:15.874Z,3.20
2018-05-08T02:57:42.283Z,3.00
2018-05-08T03:00:08.720Z,3.27
2018-05-08T03:02:35.067Z,3.03
2018-05-08T03:05:01.546Z,3.30
2018-05-08T03:07:27.932Z,3.30
2018-05-08T03:09:54.266Z,2.97
2018-05-08T03:12:20.650Z,3.00
2018-05-08T03:17:19.477Z,3.17
2018-05-08T03:19:45.856Z,3.33
2018-05-08T03:22:12.242Z,2.80
2018-05-08T03:24:38.695Z,8.43
2018-05-08T03:27:05.068Z,7.97
2018-05-08T03:29:31.478Z,5.10
2018-05-08T03:31:57.826Z,3.97
2018-05-08T03:34:24.198Z,3.80
2018-05-08T03:36:50.564Z,3.00
2018-05-08T03:39:16.901Z,3.57
2018-05-08T03:41:43.289Z,3.57
2018-05-08T03:44:09.626Z,6.70
2018-05-08T03:46:36.009Z,3.53
2018-05-08T03:49:02.325Z,3.60
2018-05-08T03:51:28.756Z,6.63
2018-05-08T03:53:55.088Z,14.30
2018-05-08T03:56:21.446Z,11.77
2018-05-08T03:58:47.802Z,19.63
2018-05-08T04:01:14.222Z,11.00
2018-05-08T04:03:40.615Z,14.50
2018-05-08T04:06:06.968Z,15.70
2018-05-08T04:08:33.359Z,9.40
2018-05-08T04:10:59.714Z,9.13
2018-05-08T04:13:26.093Z,12.23
2018-05-08T04:15:52.423Z,10.10
2018-05-08T04:18:18.766Z,8.13
2018-05-08T04:20:45.225Z,4.30
2018-05-08T04:23:11.570Z,8.13
2018-05-08T04:25:37.898Z,9.10
2018-05-08T04:28:04.897Z,9.60
2018-05-08T04:30:31.259Z,7.90
2018-05-08T04:32:57.642Z,6.63
2018-05-08T04:35:24.071Z,12.33
2018-05-08T04:37:50.423Z,6.00
2018-05-08T04:40:16.864Z,4.10
2018-05-08T04:42:43.334Z,3.73
2018-05-08T04:45:09.919Z,7.53
2018-05-08T04:47:36.285Z,6.93
2018-05-08T04:50:02.665Z,4.10
2018-05-08T04:52:29.149Z,6.53
2018-05-08T04:54:55.552Z,7.13
2018-05-08T04:57:21.870Z,3.40
2018-05-08T04:59:48.248Z,5.33
2018-05-08T05:02:14.675Z,3.40
2018-05-08T05:04:41.025Z,5.47
2018-05-08T05:07:07.433Z,5.93
2018-05-08T05:09:33.814Z,4.47
2018-05-08T05:12:01.275Z,4.33
2018-05-08T05:14:27.871Z,4.13
2018-05-08T05:16:54.210Z,6.00
2018-05-08T05:19:20.659Z,4.37
2018-05-08T05:21:47.065Z,7.50
2018-05-08T05:24:13.440Z,5.27
2018-05-08T05:26:39.864Z,4.40
2018-05-08T05:29:06.336Z,4.17
2018-05-08T05:31:32.788Z,4.57
2018-05-08T05:33:59.335Z,5.43
2018-05-08T05:36:25.691Z,5.10
2018-05-08T05:38:52.096Z,9.03
2018-05-08T05:41:18.550Z,10.20
2018-05-08T05:43:44.934Z,4.73
2018-05-08T05:46:11.282Z,8.67
2018-05-08T05:48:37.649Z,9.03
2018-05-08T05:51:04.027Z,4.40
2018-05-08T05:53:30.373Z,9.40
2018-05-08T05:55:56.782Z,12.70
2018-05-08T05:58:23.118Z,8.47
2018-05-08T06:00:49.527Z,4.93
2018-05-08T06:03:15.997Z,7.10
2018-05-08T06:05:42.336Z,6.87
2018-05-08T06:08:08.756Z,12.23
2018-05-08T06:10:35.165Z,8.47
2018-05-08T06:13:01.570Z,6.63
2018-05-08T06:15:27.904Z,9.43
2018-05-08T06:17:54.301Z,7.50
2018-05-08T06:20:20.694Z,7.10
2018-05-08T06:22:47.093Z,5.43
2018-05-08T06:25:13.781Z,14.30
2018-05-08T06:27:40.352Z,8.73
2018-05-08T06:30:06.749Z,6.40
2018-05-08T06:32:33.101Z,8.93
2018-05-08T06:34:59.509Z,11.07
2018-05-08T06:37:25.885Z,9.77
2018-05-08T06:39:52.281Z,7.77
2018-05-08T06:42:18.726Z,7.50
2018-05-08T06:44:45.139Z,6.67
2018-05-08T06:47:11.499Z,5.00
2018-05-08T06:49:37.940Z,6.70
2018-05-08T06:52:04.435Z,7.23
2018-05-08T06:54:30.863Z,3.90
2018-05-08T06:56:57.253Z,8.90
2018-05-08T06:59:23.610Z,9.90
2018-05-08T07:01:49.952Z,6.23
2018-05-08T07:04:16.288Z,9.67
2018-05-08T07:06:42.695Z,9.20
2018-05-08T07:09:09.141Z,10.40
2018-05-08T07:11:35.571Z,12.93
2018-05-08T07:14:01.954Z,5.63
2018-05-08T07:16:28.318Z,9.90
2018-05-08T07:18:54.718Z,8.00
2018-05-08T07:21:21.088Z,11.60
2018-05-08T07:23:47.657Z,9.80
2018-05-08T07:26:14.217Z,9.90
2018-05-08T07:28:40.573Z,11.00
2018-05-08T07:31:07.103Z,6.33
2018-05-08T07:33:33.547Z,6.60
2018-05-08T07:35:59.948Z,6.67
2018-05-08T07:38:26.336Z,9.30
2018-05-08T07:40:52.934Z,6.47
2018-05-08T07:43:19.799Z,12.80
2018-05-08T07:45:46.544Z,7.50
2018-05-08T07:48:13.413Z,8.33
2018-05-08T07:50:39.945Z,10.73
2018-05-08T07:53:06.743Z,9.80
2018-05-08T07:55:33.725Z,5.93
2018-05-08T07:58:02.216Z,12.53
2018-05-08T08:00:36.717Z,8.60
2018-05-08T08:03:06.161Z,11.47
2018-05-08T08:05:34.162Z,10.40
2018-05-08T08:08:01.309Z,4.87
2018-05-08T08:15:52.839Z,7.87
2018-05-08T08:18:21.196Z,5.43
2018-05-08T08:20:47.933Z,21.73
2018-05-08T08:23:15.520Z,7.23
2018-05-08T08:25:42.365Z,15.73
2018-05-08T08:28:09.722Z,5.70
2018-05-08T08:30:38.053Z,10.67
2018-05-08T08:33:05.264Z,9.70
2018-05-08T08:35:32.069Z,9.63
2018-05-08T08:37:59.069Z,11.80
2018-05-08T08:40:30.354Z,12.77
2018-05-08T08:42:57.699Z,7.83
2018-05-08T08:45:24.676Z,8.93
2018-05-08T08:47:51.424Z,9.03
2018-05-08T08:50:18.194Z,6.27
2018-05-08T08:52:45.002Z,8.83
2018-05-08T08:55:11.736Z,6.03
2018-05-08T08:57:38.679Z,8.13
2018-05-08T09:00:05.275Z,4.83
2018-05-08T09:02:31.733Z,8.00
2018-05-08T09:04:58.295Z,9.50
2018-05-08T09:07:24.715Z,6.03
2018-05-08T09:09:51.220Z,6.73
2018-05-08T09:12:17.772Z,7.17
2018-05-08T09:14:44.116Z,8.30
2018-05-08T09:17:10.545Z,8.93
2018-05-08T09:19:36.898Z,11.40
2018-05-08T09:22:03.361Z,13.60
2018-05-08T09:24:29.816Z,6.93
2018-05-08T09:26:56.490Z,13.93
2018-05-08T09:29:23.024Z,7.60
2018-05-08T09:31:49.456Z,8.50
2018-05-08T09:34:15.978Z,6.73
2018-05-08T09:36:42.410Z,6.20
2018-05-08T09:39:08.961Z,8.90
2018-05-08T09:41:35.315Z,12.27
2018-05-08T09:44:03.766Z,10.23
2018-05-08T09:46:30.179Z,6.77
2018-05-08T09:48:56.723Z,6.13
2018-05-08T09:51:23.158Z,7.67
2018-05-08T09:53:49.558Z,8.70
2018-05-08T09:56:15.974Z,9.07
2018-05-08T09:58:42.362Z,12.30
2018-05-08T10:01:08.793Z,12.87
2018-05-08T10:03:35.202Z,13.30
2018-05-08T10:06:01.669Z,9.63
2018-05-08T10:08:28.173Z,12.43
2018-05-08T10:10:54.685Z,8.63
2018-05-08T10:13:21.097Z,10.13
2018-05-08T10:15:48.201Z,11.73
2018-05-08T10:18:14.706Z,5.33
2018-05-08T10:20:41.409Z,6.70
2018-05-08T10:23:07.900Z,6.83
2018-05-08T10:25:34.606Z,9.47
2018-05-08T10:28:01.029Z,7.30
2018-05-08T10:30:27.399Z,8.67
2018-05-08T10:32:54.047Z,7.27
2018-05-08T10:35:21.084Z,11.20
2018-05-08T10:37:47.547Z,8.80
2018-05-08T10:40:13.938Z,8.40
2018-05-08T10:42:40.423Z,12.57
2018-05-08T10:45:06.705Z,9.93
2018-05-08T10:47:33.049Z,7.93
2018-05-08T10:50:00.548Z,8.20
2018-05-08T10:52:26.993Z,11.30
2018-05-08T10:54:56.772Z,9.80
2018-05-08T10:57:23.623Z,14.77
2018-05-08T10:59:50.154Z,12.03
2018-05-08T11:02:16.731Z,11.50
2018-05-08T11:04:43.148Z,11.43
2018-05-08T11:07:09.540Z,8.10
2018-05-08T11:09:36.007Z,9.83
2018-05-08T11:12:02.431Z,8.93
2018-05-08T11:14:28.882Z,13.13
2018-05-08T11:16:55.395Z,10.63
2018-05-08T11:19:21.762Z,7.83
2018-05-08T11:21:48.154Z,6.43
2018-05-08T11:24:14.796Z,19.27
2018-05-08T11:26:41.266Z,11.10
2018-05-08T11:29:07.536Z,16.10
2018-05-08T11:34:06.524Z,8.47
2018-05-08T11:36:32.893Z,7.57
2018-05-08T11:38:59.365Z,5.00
2018-05-08T11:41:25.870Z,7.10
2018-05-08T11:43:52.477Z,8.87
2018-05-08T11:46:18.849Z,13.80
2018-05-08T11:48:45.372Z,11.60
2018-05-08T11:51:11.746Z,11.70
2018-05-08T11:53:38.155Z,13.20
2018-05-08T11:56:05.539Z,14.73
2018-05-08T11:58:31.866Z,7.90
2018-05-08T12:00:59.190Z,5.63
2018-05-08T12:03:25.905Z,14.03
2018-05-08T12:05:52.543Z,10.17
2018-05-08T12:08:19.014Z,11.00
2018-05-08T12:10:45.596Z,11.33
2018-05-08T12:13:12.155Z,8.00
2018-05-08T12:15:38.576Z,8.97
2018-05-08T12:18:05.178Z,4.90
2018-05-08T12:20:31.554Z,14.23
2018-05-08T12:22:57.980Z,5.47
2018-05-08T12:25:24.697Z,7.03
2018-05-08T12:27:51.305Z,5.57
2018-05-08T12:30:17.703Z,8.03
2018-05-08T12:32:44.510Z,11.83
2018-05-08T12:35:12.499Z,5.30
2018-05-08T12:37:39.143Z,12.67
2018-05-08T12:40:05.528Z,5.87
2018-05-08T12:42:32.024Z,7.07
2018-05-08T12:44:58.396Z,12.43
2018-05-08T12:47:24.799Z,5.20
2018-05-08T12:49:51.298Z,7.37
2018-05-08T12:52:17.844Z,7.50
2018-05-08T12:54:44.309Z,10.00
2018-05-08T12:57:10.793Z,8.57
2018-05-08T12:59:37.275Z,8.50
2018-05-08T13:02:03.691Z,8.40
2018-05-08T13:04:30.098Z,5.63
2018-05-08T13:06:56.536Z,7.13
2018-05-08T13:09:22.932Z,4.30
2018-05-08T13:11:49.335Z,8.30
2018-05-08T13:14:15.791Z,6.70
2018-05-08T13:16:42.503Z,10.13
2018-05-08T13:19:09.040Z,5.33
2018-05-08T13:21:35.480Z,6.43
2018-05-08T13:24:01.994Z,6.87
2018-05-08T13:26:28.595Z,6.67
2018-05-08T13:28:55.634Z,17.63
2018-05-08T13:31:22.031Z,15.53
2018-05-08T13:33:48.382Z,12.20
2018-05-08T13:36:14.752Z,8.07
2018-05-08T13:38:41.289Z,8.93
2018-05-08T13:41:07.714Z,10.27
2018-05-08T13:43:34.200Z,11.93
2018-05-08T13:46:00.636Z,9.07
2018-05-08T13:48:27.053Z,9.63
2018-05-08T13:50:53.408Z,11.57
2018-05-08T13:53:19.787Z,9.23
2018-05-08T13:55:46.301Z,12.73
2018-05-08T13:58:12.847Z,11.83
2018-05-08T14:00:39.173Z,12.23
2018-05-08T14:03:05.568Z,16.93
2018-05-08T14:05:32.049Z,8.33
2018-05-08T14:07:58.417Z,5.63
2018-05-08T14:10:24.789Z,7.70
2018-05-08T14:12:51.160Z,7.83
2018-05-08T14:15:17.605Z,9.33
2018-05-08T14:17:43.963Z,17.87
2018-05-08T14:20:10.428Z,8.83
2018-05-08T14:22:36.805Z,12.17
2018-05-08T14:25:03.176Z,9.90
2018-05-08T14:27:29.577Z,16.90
2018-05-08T14:29:55.991Z,8.23
2018-05-08T14:32:22.423Z,7.67
2018-05-08T14:34:48.834Z,6.90
2018-05-08T14:37:15.271Z,10.47
2018-05-08T14:39:41.647Z,4.87
2018-05-08T14:42:08.004Z,6.10
2018-05-08T14:44:34.399Z,5.70
2018-05-08T14:47:00.835Z,5.27
2018-05-08T14:49:27.325Z,10.90
2018-05-08T14:51:53.669Z,5.60
2018-05-08T14:54:20.055Z,4.40
2018-05-08T14:56:46.769Z,8.07
2018-05-08T14:59:13.919Z,9.40
2018-05-08T15:01:43.026Z,9.73
2018-05-08T15:04:11.630Z,4.70
2018-05-08T15:06:39.446Z,8.03
2018-05-08T15:09:06.671Z,4.53
2018-05-08T15:11:33.318Z,5.10
2018-05-08T15:14:00.364Z,8.97
2018-05-08T15:16:26.789Z,9.33
2018-05-08T15:18:53.232Z,7.23
2018-05-08T15:21:19.635Z,5.27
2018-05-08T15:23:46.316Z,6.37
2018-05-08T15:26:12.892Z,4.73
2018-05-08T15:28:39.946Z,7.33
2018-05-08T15:31:06.819Z,6.13
2018-05-08T15:33:33.446Z,10.63
2018-05-08T15:35:59.794Z,5.77
2018-05-08T15:38:26.198Z,11.13
2018-05-08T15:40:52.729Z,5.30
2018-05-08T15:43:19.270Z,4.83
2018-05-08T15:45:45.768Z,2.97
2018-05-08T15:48:12.173Z,10.23
2018-05-08T15:50:38.551Z,4.27
2018-05-08T15:53:05.033Z,5.40
2018-05-08T15:55:31.659Z,4.47
2018-05-08T15:57:58.102Z,7.40
2018-05-08T16:00:24.455Z,4.43
2018-05-08T16:02:50.816Z,6.60
2018-05-08T16:05:17.190Z,7.40
2018-05-08T16:07:43.667Z,12.53
2018-05-08T16:10:10.065Z,5.40
2018-05-08T16:12:36.408Z,8.47
2018-05-08T16:15:02.771Z,8.53
2018-05-08T16:17:29.241Z,7.00
2018-05-08T16:19:55.638Z,5.43
2018-05-08T16:22:22.009Z,7.90
2018-05-08T16:24:48.395Z,7.63
2018-05-08T16:27:14.993Z,8.80
2018-05-08T16:29:41.449Z,8.23
2018-05-08T16:32:07.848Z,8.00
2018-05-08T16:34:34.168Z,4.20
2018-05-08T16:37:00.540Z,6.53
2018-05-08T16:39:27.030Z,6.27
2018-05-08T16:41:53.276Z,4.53
2018-05-08T16:44:19.644Z,6.27
2018-05-08T16:46:46.107Z,4.67
2018-05-08T16:49:12.490Z,12.33
2018-05-08T16:51:38.817Z,5.30
2018-05-08T16:54:05.306Z,5.50
2018-05-08T16:56:31.617Z,3.17
2018-05-08T16:58:58.177Z,7.53
2018-05-08T17:01:24.595Z,6.63
2018-05-08T17:03:50.908Z,4.33
2018-05-08T17:06:17.264Z,3.23
2018-05-08T17:08:43.592Z,3.43
2018-05-08T17:11:09.964Z,5.60
2018-05-08T17:13:36.352Z,6.73
2018-05-08T17:16:02.674Z,4.70
2018-05-08T17:18:29.032Z,4.67
2018-05-08T17:20:55.470Z,3.10
2018-05-08T17:23:21.796Z,2.80
2018-05-08T17:25:48.168Z,3.60
2018-05-08T17:28:14.577Z,5.47
2018-05-08T17:30:41.032Z,3.77
2018-05-08T17:33:07.344Z,7.60
2018-05-08T17:35:33.653Z,4.80
2018-05-08T17:37:59.974Z,7.13
2018-05-08T17:40:26.380Z,6.13
2018-05-08T17:42:52.780Z,3.73
2018-05-08T17:45:19.132Z,4.30
2018-05-08T17:47:45.455Z,5.43
2018-05-08T17:50:11.888Z,6.57
2018-05-08T17:52:38.218Z,2.80
2018-05-08T17:55:04.584Z,2.70
2018-05-08T17:57:30.980Z,6.70
2018-05-08T17:59:57.351Z,4.70
2018-05-08T18:02:23.681Z,3.83
2018-05-08T18:04:50.024Z,3.27
2018-05-08T18:07:16.386Z,3.83
2018-05-08T18:09:42.840Z,6.03
2018-05-08T18:12:09.244Z,3.13
2018-05-08T18:14:35.567Z,3.30
2018-05-08T18:17:02.218Z,3.57
2018-05-08T18:19:28.656Z,3.37
2018-05-08T18:21:55.007Z,3.33
2018-05-08T18:24:21.316Z,3.13
2018-05-08T18:26:47.676Z,3.37
2018-05-08T18:29:14.080Z,6.40
2018-05-08T18:31:40.460Z,3.50
2018-05-08T18:34:06.829Z,2.50
2018-05-08T18:36:33.172Z,3.40
2018-05-08T18:38:59.520Z,2.90
2018-05-08T18:41:25.885Z,2.77
2018-05-08T18:43:52.322Z,3.60
2018-05-08T18:46:18.887Z,2.83
2018-05-08T18:48:45.329Z,3.30
2018-05-08T18:51:11.593Z,2.47
2018-05-08T18:53:38.018Z,2.77
2018-05-08T18:56:04.382Z,2.83
2018-05-08T18:58:30.754Z,3.73
2018-05-08T19:00:57.080Z,4.30
2018-05-08T19:03:23.467Z,3.20
2018-05-08T19:05:49.814Z,2.77
2018-05-08T19:08:16.189Z,2.47
2018-05-08T19:10:42.502Z,3.23
2018-05-08T19:13:08.864Z,4.13
2018-05-08T19:15:35.232Z,2.30
2018-05-08T19:18:01.937Z,2.90
2018-05-08T19:20:28.318Z,2.87
2018-05-08T19:22:54.636Z,4.10
2018-05-08T19:25:20.993Z,2.40
2018-05-08T19:27:47.365Z,3.57
2018-05-08T19:30:13.732Z,2.50
2018-05-08T19:32:40.049Z,3.93
2018-05-08T19:35:06.472Z,2.60
2018-05-08T19:37:32.796Z,2.87
2018-05-08T19:39:59.141Z,2.47
2018-05-08T19:42:25.491Z,2.30
2018-05-08T19:44:51.916Z,3.00
2018-05-08T19:47:18.359Z,2.67
2018-05-08T19:49:44.773Z,3.33
2018-05-08T19:52:11.086Z,3.13
2018-05-08T19:54:38.242Z,3.80
2018-05-08T19:57:04.588Z,2.33
2018-05-08T19:59:31.054Z,3.03
2018-05-08T20:01:57.448Z,3.10
2018-05-08T20:04:23.835Z,2.60
2018-05-08T20:06:50.179Z,2.20
2018-05-08T20:09:16.611Z,2.90
2018-05-08T20:11:42.928Z,3.00
2018-05-08T20:14:09.412Z,2.70
2018-05-08T20:16:35.777Z,2.50
2018-05-08T20:19:02.175Z,2.57
2018-05-08T20:21:28.665Z,3.33
2018-05-08T20:23:55.005Z,2.53
2018-05-08T20:26:22.427Z,4.53
2018-05-08T20:28:49.035Z,2.70
2018-05-08T20:31:15.603Z,2.40
2018-05-08T20:33:41.950Z,3.30
2018-05-08T20:36:08.621Z,2.37
2018-05-08T20:38:34.984Z,2.40
2018-05-08T20:41:01.348Z,4.43
2018-05-08T20:43:27.700Z,2.40
2018-05-08T20:45:54.076Z,3.40
2018-05-08T20:48:20.544Z,2.30
2018-05-08T20:50:46.918Z,2.70
2018-05-08T20:53:13.313Z,2.70
2018-05-08T20:55:39.904Z,3.23
2018-05-08T20:58:07.630Z,2.20
2018-05-08T21:00:34.315Z,2.63
2018-05-08T21:03:01.063Z,3.80
2018-05-08T21:05:27.592Z,2.50
2018-05-08T21:07:54.755Z,2.57
2018-05-08T21:10:21.324Z,2.80
2018-05-08T21:12:47.648Z,2.37
2018-05-08T21:15:14.072Z,2.77
2018-05-08T21:17:40.579Z,3.70
2018-05-08T21:20:07.001Z,3.40
2018-05-08T21:22:33.338Z,2.60
2018-05-08T21:24:59.714Z,2.30
2018-05-08T21:27:26.077Z,3.50
2018-05-08T21:29:53.121Z,2.20
2018-05-08T21:32:19.468Z,2.40
2018-05-08T21:34:45.853Z,2.40
2018-05-08T21:37:12.344Z,2.13
2018-05-08T21:39:38.725Z,3.40
2018-05-08T21:42:05.198Z,2.37
2018-05-08T21:44:31.850Z,2.30
2018-05-08T21:46:58.196Z,2.50
2018-05-08T21:49:24.726Z,2.27
2018-05-08T21:51:51.072Z,3.00
2018-05-08T21:54:17.671Z,2.27
2018-05-08T21:56:44.004Z,2.80
2018-05-08T21:59:10.986Z,2.80
2018-05-08T22:01:37.568Z,2.73
2018-05-08T22:04:03.981Z,2.73
2018-05-08T22:06:30.359Z,3.07
2018-05-08T22:08:59.928Z,3.03
2018-05-08T22:11:26.863Z,3.27
2018-05-08T22:13:53.472Z,2.20
2018-05-08T22:16:19.899Z,2.43
2018-05-08T22:18:46.380Z,2.90
2018-05-08T22:21:14.685Z,2.60
2018-05-08T22:23:41.557Z,2.43
2018-05-08T22:26:07.917Z,2.67
2018-05-08T22:28:34.338Z,2.57
2018-05-08T22:31:00.699Z,3.97
2018-05-08T22:33:27.065Z,3.63
2018-05-08T22:35:53.432Z,3.20
2018-05-08T22:38:19.879Z,2.30
2018-05-08T22:40:46.252Z,2.30
2018-05-08T22:43:12.726Z,3.50
2018-05-08T22:45:39.072Z,2.37
2018-05-08T22:48:05.388Z,2.60
2018-05-08T22:50:32.735Z,2.80
2018-05-08T22:52:59.121Z,2.40
2018-05-08T22:55:25.560Z,3.50
2018-05-08T22:57:51.890Z,2.90
2018-05-08T23:00:18.223Z,2.50
2018-05-08T23:02:44.934Z,2.37
2018-05-08T23:05:11.710Z,2.70
2018-05-08T23:07:38.073Z,2.63
2018-05-08T23:10:04.395Z,2.50
2018-05-08T23:12:30.775Z,2.50
2018-05-08T23:14:57.093Z,2.40
2018-05-08T23:17:23.428Z,2.27
2018-05-08T23:22:30.960Z,4.53
2018-05-08T23:24:57.449Z,2.90
2018-05-08T23:27:24.036Z,3.00
2018-05-08T23:29:50.400Z,4.03
2018-05-08T23:32:17.042Z,2.13
2018-05-08T23:34:43.469Z,4.67
2018-05-08T23:37:09.797Z,2.63
2018-05-08T23:39:36.193Z,2.63
2018-05-08T23:42:02.519Z,2.30
2018-05-08T23:44:28.900Z,2.60
2018-05-08T23:46:55.307Z,2.10
2018-05-08T23:49:21.624Z,2.50
2018-05-08T23:51:49.360Z,2.90
2018-05-08T23:54:16.082Z,2.20
2018-05-08T23:56:42.438Z,2.50
2018-05-08T23:59:08.940Z,2.30
